sensor_id;sensor_type;location;lat;lon;timestamp;P1;durP1;ratioP1;P2;durP2;ratioP2
50585;SDS011;36542;51.700;8.846;2022-10-16T00:00:37;5.80;;;4.30;;
50585;SDS011;36542;51.700;8.846;2022-10-16T00:03:04;7.40;;;4.47;;
50585;SDS011;36542;51.700;8.846;2022-10-16T00:05:31;10.37;;;4.60;;
50585;SDS011;36542;51.700;8.846;2022-10-16T00:07:56;7.00;;;4.37;;
50585;SDS011;36542;51.700;8.846;2022-10-16T00:10:22;5.70;;;4.43;;
50585;SDS011;36542;51.700;8.846;2022-10-16T00:12:48;8.47;;;4.97;;
50585;SDS011;36542;51.700;8.846;2022-10-16T00:15:13;8.00;;;4.60;;
50585;SDS011;36542;51.700;8.846;2022-10-16T00:17:39;8.27;;;4.73;;
50585;SDS011;36542;51.700;8.846;2022-10-16T00:20:05;9.43;;;4.83;;
50585;SDS011;36542;51.700;8.846;2022-10-16T00:22:31;8.37;;;5.53;;
50585;SDS011;36542;51.700;8.846;2022-10-16T00:24:56;8.50;;;5.17;;
50585;SDS011;36542;51.700;8.846;2022-10-16T00:27:22;9.63;;;4.90;;
50585;SDS011;36542;51.700;8.846;2022-10-16T00:29:51;9.03;;;5.60;;
50585;SDS011;36542;51.700;8.846;2022-10-16T00:32:17;7.23;;;5.50;;
50585;SDS011;36542;51.700;8.846;2022-10-16T00:34:44;10.40;;;6.70;;
50585;SDS011;36542;51.700;8.846;2022-10-16T00:37:11;14.40;;;5.87;;
50585;SDS011;36542;51.700;8.846;2022-10-16T00:39:36;11.67;;;7.13;;
50585;SDS011;36542;51.700;8.846;2022-10-16T00:42:02;9.00;;;6.73;;
50585;SDS011;36542;51.700;8.846;2022-10-16T00:44:41;8.43;;;6.97;;
50585;SDS011;36542;51.700;8.846;2022-10-16T00:47:22;15.17;;;8.97;;
50585;SDS011;36542;51.700;8.846;2022-10-16T00:50:13;13.23;;;8.53;;
50585;SDS011;36542;51.700;8.846;2022-10-16T00:52:41;11.40;;;8.67;;
50585;SDS011;36542;51.700;8.846;2022-10-16T00:55:10;13.13;;;8.00;;
50585;SDS011;36542;51.700;8.846;2022-10-16T00:57:36;11.30;;;8.60;;
50585;SDS011;36542;51.700;8.846;2022-10-16T01:00:04;12.63;;;8.67;;
50585;SDS011;36542;51.700;8.846;2022-10-16T01:02:32;15.10;;;9.00;;
50585;SDS011;36542;51.700;8.846;2022-10-16T01:04:58;13.60;;;9.10;;
50585;SDS011;36542;51.700;8.846;2022-10-16T01:20:42;16.43;;;10.67;;
50585;SDS011;36542;51.700;8.846;2022-10-16T01:28:56;11.40;;;9.30;;
50585;SDS011;36542;51.700;8.846;2022-10-16T01:31:26;13.00;;;9.70;;
50585;SDS011;36542;51.700;8.846;2022-10-16T01:34:06;12.70;;;8.90;;
50585;SDS011;36542;51.700;8.846;2022-10-16T01:36:41;13.80;;;9.20;;
50585;SDS011;36542;51.700;8.846;2022-10-16T01:39:11;16.20;;;8.43;;
50585;SDS011;36542;51.700;8.846;2022-10-16T01:41:47;12.03;;;8.60;;
50585;SDS011;36542;51.700;8.846;2022-10-16T01:44:18;11.37;;;8.37;;
50585;SDS011;36542;51.700;8.846;2022-10-16T01:46:48;11.47;;;8.80;;
50585;SDS011;36542;51.700;8.846;2022-10-16T01:49:16;11.90;;;8.90;;
50585;SDS011;36542;51.700;8.846;2022-10-16T01:51:44;11.30;;;7.97;;
50585;SDS011;36542;51.700;8.846;2022-10-16T01:54:12;12.93;;;8.57;;
50585;SDS011;36542;51.700;8.846;2022-10-16T01:56:39;11.83;;;8.20;;
50585;SDS011;36542;51.700;8.846;2022-10-16T01:59:11;10.60;;;8.00;;
50585;SDS011;36542;51.700;8.846;2022-10-16T02:01:40;10.30;;;6.57;;
50585;SDS011;36542;51.700;8.846;2022-10-16T02:04:13;7.50;;;6.30;;
50585;SDS011;36542;51.700;8.846;2022-10-16T02:06:42;10.73;;;5.67;;
50585;SDS011;36542;51.700;8.846;2022-10-16T02:09:07;8.97;;;6.20;;
50585;SDS011;36542;51.700;8.846;2022-10-16T02:11:33;7.50;;;6.30;;
50585;SDS011;36542;51.700;8.846;2022-10-16T02:14:01;6.70;;;5.13;;
50585;SDS011;36542;51.700;8.846;2022-10-16T02:16:33;6.00;;;5.40;;
50585;SDS011;36542;51.700;8.846;2022-10-16T02:19:17;6.90;;;5.10;;
50585;SDS011;36542;51.700;8.846;2022-10-16T02:21:59;7.27;;;4.40;;
50585;SDS011;36542;51.700;8.846;2022-10-16T02:27:05;6.23;;;4.80;;
50585;SDS011;36542;51.700;8.846;2022-10-16T02:29:45;7.57;;;5.10;;
50585;SDS011;36542;51.700;8.846;2022-10-16T02:32:15;5.83;;;5.20;;
50585;SDS011;36542;51.700;8.846;2022-10-16T02:34:45;7.40;;;5.17;;
50585;SDS011;36542;51.700;8.846;2022-10-16T02:37:13;7.47;;;5.53;;
50585;SDS011;36542;51.700;8.846;2022-10-16T02:39:39;5.67;;;4.57;;
50585;SDS011;36542;51.700;8.846;2022-10-16T02:42:09;8.50;;;4.60;;
50585;SDS011;36542;51.700;8.846;2022-10-16T02:44:36;6.70;;;5.23;;
50585;SDS011;36542;51.700;8.846;2022-10-16T02:47:02;7.80;;;4.77;;
50585;SDS011;36542;51.700;8.846;2022-10-16T02:49:27;5.37;;;4.67;;
50585;SDS011;36542;51.700;8.846;2022-10-16T02:51:53;6.43;;;4.80;;
50585;SDS011;36542;51.700;8.846;2022-10-16T02:54:18;5.47;;;4.57;;
50585;SDS011;36542;51.700;8.846;2022-10-16T02:56:44;6.00;;;4.70;;
50585;SDS011;36542;51.700;8.846;2022-10-16T02:59:09;6.03;;;4.63;;
50585;SDS011;36542;51.700;8.846;2022-10-16T03:01:35;8.30;;;4.57;;
50585;SDS011;36542;51.700;8.846;2022-10-16T03:04:01;5.93;;;4.43;;
50585;SDS011;36542;51.700;8.846;2022-10-16T03:06:26;4.73;;;4.27;;
50585;SDS011;36542;51.700;8.846;2022-10-16T03:08:52;6.63;;;4.77;;
50585;SDS011;36542;51.700;8.846;2022-10-16T03:11:17;6.90;;;4.80;;
50585;SDS011;36542;51.700;8.846;2022-10-16T03:13:42;7.87;;;4.93;;
50585;SDS011;36542;51.700;8.846;2022-10-16T03:16:08;9.57;;;5.07;;
50585;SDS011;36542;51.700;8.846;2022-10-16T03:18:33;4.63;;;4.10;;
50585;SDS011;36542;51.700;8.846;2022-10-16T03:20:59;8.33;;;4.80;;
50585;SDS011;36542;51.700;8.846;2022-10-16T03:23:25;4.90;;;3.87;;
50585;SDS011;36542;51.700;8.846;2022-10-16T03:25:50;4.37;;;3.13;;
50585;SDS011;36542;51.700;8.846;2022-10-16T03:28:16;3.77;;;3.47;;
50585;SDS011;36542;51.700;8.846;2022-10-16T03:30:42;3.60;;;3.30;;
50585;SDS011;36542;51.700;8.846;2022-10-16T03:33:08;5.77;;;3.00;;
50585;SDS011;36542;51.700;8.846;2022-10-16T03:35:34;6.47;;;3.13;;
50585;SDS011;36542;51.700;8.846;2022-10-16T03:37:59;6.90;;;2.90;;
50585;SDS011;36542;51.700;8.846;2022-10-16T03:40:25;3.10;;;2.83;;
50585;SDS011;36542;51.700;8.846;2022-10-16T03:42:50;4.10;;;3.00;;
50585;SDS011;36542;51.700;8.846;2022-10-16T03:45:16;3.23;;;2.93;;
50585;SDS011;36542;51.700;8.846;2022-10-16T03:47:42;3.93;;;2.83;;
50585;SDS011;36542;51.700;8.846;2022-10-16T03:50:07;3.80;;;3.20;;
50585;SDS011;36542;51.700;8.846;2022-10-16T03:52:33;4.00;;;3.03;;
50585;SDS011;36542;51.700;8.846;2022-10-16T03:54:59;3.70;;;3.37;;
50585;SDS011;36542;51.700;8.846;2022-10-16T03:57:24;6.40;;;3.30;;
50585;SDS011;36542;51.700;8.846;2022-10-16T03:59:50;4.17;;;3.80;;
50585;SDS011;36542;51.700;8.846;2022-10-16T04:02:16;4.30;;;3.90;;
50585;SDS011;36542;51.700;8.846;2022-10-16T04:04:41;4.33;;;3.17;;
50585;SDS011;36542;51.700;8.846;2022-10-16T04:07:07;5.67;;;3.30;;
50585;SDS011;36542;51.700;8.846;2022-10-16T04:09:32;5.97;;;3.67;;
50585;SDS011;36542;51.700;8.846;2022-10-16T04:11:58;6.23;;;3.40;;
50585;SDS011;36542;51.700;8.846;2022-10-16T04:14:23;3.00;;;2.80;;
50585;SDS011;36542;51.700;8.846;2022-10-16T04:16:49;3.40;;;3.10;;
50585;SDS011;36542;51.700;8.846;2022-10-16T04:19:14;4.47;;;3.30;;
50585;SDS011;36542;51.700;8.846;2022-10-16T04:21:40;3.27;;;2.37;;
50585;SDS011;36542;51.700;8.846;2022-10-16T04:24:05;5.13;;;2.30;;
50585;SDS011;36542;51.700;8.846;2022-10-16T04:26:31;2.63;;;2.20;;
50585;SDS011;36542;51.700;8.846;2022-10-16T04:28:56;4.83;;;2.20;;
50585;SDS011;36542;51.700;8.846;2022-10-16T04:31:22;2.47;;;2.20;;
50585;SDS011;36542;51.700;8.846;2022-10-16T04:33:47;2.13;;;2.03;;
50585;SDS011;36542;51.700;8.846;2022-10-16T04:36:13;2.33;;;2.00;;
50585;SDS011;36542;51.700;8.846;2022-10-16T04:38:39;3.03;;;2.30;;
50585;SDS011;36542;51.700;8.846;2022-10-16T04:41:05;2.17;;;2.00;;
50585;SDS011;36542;51.700;8.846;2022-10-16T04:43:31;2.43;;;2.00;;
50585;SDS011;36542;51.700;8.846;2022-10-16T04:45:57;3.73;;;2.17;;
50585;SDS011;36542;51.700;8.846;2022-10-16T04:48:23;3.23;;;2.50;;
50585;SDS011;36542;51.700;8.846;2022-10-16T04:50:48;2.53;;;2.07;;
50585;SDS011;36542;51.700;8.846;2022-10-16T04:53:14;2.60;;;2.40;;
50585;SDS011;36542;51.700;8.846;2022-10-16T04:55:40;4.73;;;2.80;;
50585;SDS011;36542;51.700;8.846;2022-10-16T04:58:06;3.13;;;2.50;;
50585;SDS011;36542;51.700;8.846;2022-10-16T05:00:32;2.90;;;2.47;;
50585;SDS011;36542;51.700;8.846;2022-10-16T05:02:57;2.90;;;2.40;;
50585;SDS011;36542;51.700;8.846;2022-10-16T05:05:24;2.67;;;2.47;;
50585;SDS011;36542;51.700;8.846;2022-10-16T05:07:50;3.47;;;2.53;;
50585;SDS011;36542;51.700;8.846;2022-10-16T05:10:16;4.03;;;2.83;;
50585;SDS011;36542;51.700;8.846;2022-10-16T05:12:41;4.37;;;2.60;;
50585;SDS011;36542;51.700;8.846;2022-10-16T05:15:07;3.07;;;2.87;;
50585;SDS011;36542;51.700;8.846;2022-10-16T05:17:33;3.60;;;3.30;;
50585;SDS011;36542;51.700;8.846;2022-10-16T05:19:58;5.07;;;3.10;;
50585;SDS011;36542;51.700;8.846;2022-10-16T05:22:24;3.20;;;2.90;;
50585;SDS011;36542;51.700;8.846;2022-10-16T05:24:50;2.80;;;2.60;;
50585;SDS011;36542;51.700;8.846;2022-10-16T05:27:16;2.67;;;2.40;;
50585;SDS011;36542;51.700;8.846;2022-10-16T05:29:44;5.47;;;2.77;;
50585;SDS011;36542;51.700;8.846;2022-10-16T05:32:11;3.53;;;2.40;;
50585;SDS011;36542;51.700;8.846;2022-10-16T05:34:38;3.53;;;2.33;;
50585;SDS011;36542;51.700;8.846;2022-10-16T05:37:03;3.90;;;2.50;;
50585;SDS011;36542;51.700;8.846;2022-10-16T05:39:29;2.87;;;2.37;;
50585;SDS011;36542;51.700;8.846;2022-10-16T05:41:55;2.57;;;2.20;;
50585;SDS011;36542;51.700;8.846;2022-10-16T05:44:20;3.30;;;2.30;;
50585;SDS011;36542;51.700;8.846;2022-10-16T05:46:46;3.33;;;2.23;;
50585;SDS011;36542;51.700;8.846;2022-10-16T05:49:12;3.33;;;2.40;;
50585;SDS011;36542;51.700;8.846;2022-10-16T05:51:37;2.93;;;2.13;;
50585;SDS011;36542;51.700;8.846;2022-10-16T05:54:03;2.60;;;2.00;;
50585;SDS011;36542;51.700;8.846;2022-10-16T05:56:28;2.63;;;2.40;;
50585;SDS011;36542;51.700;8.846;2022-10-16T05:58:54;5.30;;;2.33;;
50585;SDS011;36542;51.700;8.846;2022-10-16T06:01:20;2.43;;;2.17;;
50585;SDS011;36542;51.700;8.846;2022-10-16T06:03:49;3.27;;;2.00;;
50585;SDS011;36542;51.700;8.846;2022-10-16T06:06:17;2.10;;;1.90;;
50585;SDS011;36542;51.700;8.846;2022-10-16T06:08:45;3.33;;;1.80;;
50585;SDS011;36542;51.700;8.846;2022-10-16T06:11:13;4.27;;;2.43;;
50585;SDS011;36542;51.700;8.846;2022-10-16T06:13:40;1.93;;;1.77;;
50585;SDS011;36542;51.700;8.846;2022-10-16T06:16:10;3.83;;;2.17;;
50585;SDS011;36542;51.700;8.846;2022-10-16T06:18:37;3.70;;;2.00;;
50585;SDS011;36542;51.700;8.846;2022-10-16T06:21:14;2.30;;;2.10;;
50585;SDS011;36542;51.700;8.846;2022-10-16T06:23:43;3.17;;;2.20;;
50585;SDS011;36542;51.700;8.846;2022-10-16T06:26:11;3.47;;;2.40;;
50585;SDS011;36542;51.700;8.846;2022-10-16T06:28:38;2.40;;;2.20;;
50585;SDS011;36542;51.700;8.846;2022-10-16T06:31:05;2.30;;;2.10;;
50585;SDS011;36542;51.700;8.846;2022-10-16T06:33:32;2.70;;;2.20;;
50585;SDS011;36542;51.700;8.846;2022-10-16T06:36:04;2.80;;;2.53;;
50585;SDS011;36542;51.700;8.846;2022-10-16T06:38:32;2.77;;;2.50;;
50585;SDS011;36542;51.700;8.846;2022-10-16T06:40:57;2.67;;;2.40;;
50585;SDS011;36542;51.700;8.846;2022-10-16T06:43:23;2.93;;;2.67;;
50585;SDS011;36542;51.700;8.846;2022-10-16T06:45:56;3.60;;;2.43;;
50585;SDS011;36542;51.700;8.846;2022-10-16T06:48:22;3.23;;;2.77;;
50585;SDS011;36542;51.700;8.846;2022-10-16T06:50:58;3.10;;;2.80;;
50585;SDS011;36542;51.700;8.846;2022-10-16T06:53:25;2.73;;;2.53;;
50585;SDS011;36542;51.700;8.846;2022-10-16T06:55:52;6.00;;;2.70;;
50585;SDS011;36542;51.700;8.846;2022-10-16T06:58:17;4.33;;;2.50;;
50585;SDS011;36542;51.700;8.846;2022-10-16T07:00:43;2.60;;;2.40;;
50585;SDS011;36542;51.700;8.846;2022-10-16T07:03:09;3.73;;;2.50;;
50585;SDS011;36542;51.700;8.846;2022-10-16T07:05:38;3.47;;;2.60;;
50585;SDS011;36542;51.700;8.846;2022-10-16T07:08:05;2.53;;;2.33;;
50585;SDS011;36542;51.700;8.846;2022-10-16T07:10:31;3.63;;;2.17;;
50585;SDS011;36542;51.700;8.846;2022-10-16T07:12:57;2.33;;;2.13;;
50585;SDS011;36542;51.700;8.846;2022-10-16T07:15:22;2.27;;;2.10;;
50585;SDS011;36542;51.700;8.846;2022-10-16T07:17:49;4.97;;;2.70;;
50585;SDS011;36542;51.700;8.846;2022-10-16T07:20:15;3.50;;;1.93;;
50585;SDS011;36542;51.700;8.846;2022-10-16T07:22:40;2.03;;;1.83;;
50585;SDS011;36542;51.700;8.846;2022-10-16T07:25:06;2.60;;;2.00;;
50585;SDS011;36542;51.700;8.846;2022-10-16T07:27:32;2.50;;;1.80;;
50585;SDS011;36542;51.700;8.846;2022-10-16T07:29:57;2.00;;;1.90;;
50585;SDS011;36542;51.700;8.846;2022-10-16T07:32:23;1.60;;;1.50;;
50585;SDS011;36542;51.700;8.846;2022-10-16T07:34:50;1.97;;;1.70;;
50585;SDS011;36542;51.700;8.846;2022-10-16T07:37:17;1.37;;;1.27;;
50585;SDS011;36542;51.700;8.846;2022-10-16T07:39:42;2.53;;;1.50;;
50585;SDS011;36542;51.700;8.846;2022-10-16T07:42:08;1.27;;;1.17;;
50585;SDS011;36542;51.700;8.846;2022-10-16T07:44:33;1.13;;;1.10;;
50585;SDS011;36542;51.700;8.846;2022-10-16T07:46:59;1.10;;;1.07;;
50585;SDS011;36542;51.700;8.846;2022-10-16T07:49:24;2.20;;;1.20;;
50585;SDS011;36542;51.700;8.846;2022-10-16T07:51:50;1.20;;;1.20;;
50585;SDS011;36542;51.700;8.846;2022-10-16T07:54:16;2.30;;;1.20;;
50585;SDS011;36542;51.700;8.846;2022-10-16T07:56:41;1.40;;;1.00;;
50585;SDS011;36542;51.700;8.846;2022-10-16T07:59:07;1.93;;;1.10;;
50585;SDS011;36542;51.700;8.846;2022-10-16T08:01:32;4.00;;;1.30;;
50585;SDS011;36542;51.700;8.846;2022-10-16T08:03:58;2.05;;;1.15;;
50585;SDS011;36542;51.700;8.846;2022-10-16T08:06:23;0.80;;;0.75;;
50585;SDS011;36542;51.700;8.846;2022-10-16T08:08:49;1.80;;;1.00;;
50585;SDS011;36542;51.700;8.846;2022-10-16T08:11:14;1.50;;;1.17;;
50585;SDS011;36542;51.700;8.846;2022-10-16T08:13:40;2.33;;;1.20;;
50585;SDS011;36542;51.700;8.846;2022-10-16T08:16:06;2.17;;;1.13;;
50585;SDS011;36542;51.700;8.846;2022-10-16T08:18:36;2.93;;;0.97;;
50585;SDS011;36542;51.700;8.846;2022-10-16T08:21:03;1.60;;;0.90;;
50585;SDS011;36542;51.700;8.846;2022-10-16T08:23:30;1.67;;;1.20;;
50585;SDS011;36542;51.700;8.846;2022-10-16T08:25:56;3.13;;;1.00;;
50585;SDS011;36542;51.700;8.846;2022-10-16T08:28:27;1.35;;;0.75;;
50585;SDS011;36542;51.700;8.846;2022-10-16T08:30:52;0.98;;;0.95;;
50585;SDS011;36542;51.700;8.846;2022-10-16T08:33:18;3.33;;;1.07;;
50585;SDS011;36542;51.700;8.846;2022-10-16T08:35:50;1.07;;;1.07;;
50585;SDS011;36542;51.700;8.846;2022-10-16T08:38:16;1.50;;;0.93;;
50585;SDS011;36542;51.700;8.846;2022-10-16T08:40:41;0.90;;;0.70;;
50585;SDS011;36542;51.700;8.846;2022-10-16T08:51:15;3.17;;;1.10;;
50585;SDS011;36542;51.700;8.846;2022-10-16T08:53:58;1.35;;;0.90;;
50585;SDS011;36542;51.700;8.846;2022-10-16T08:56:28;1.30;;;1.00;;
50585;SDS011;36542;51.700;8.846;2022-10-16T08:58:53;2.25;;;0.90;;
50585;SDS011;36542;51.700;8.846;2022-10-16T09:01:21;1.85;;;0.85;;
50585;SDS011;36542;51.700;8.846;2022-10-16T09:03:54;1.20;;;0.80;;
50585;SDS011;36542;51.700;8.846;2022-10-16T09:12:18;1.27;;;1.10;;
50585;SDS011;36542;51.700;8.846;2022-10-16T09:14:49;1.42;;;1.08;;
50585;SDS011;36542;51.700;8.846;2022-10-16T09:17:37;0.73;;;0.73;;
50585;SDS011;36542;51.700;8.846;2022-10-16T09:23:00;1.65;;;0.98;;
50585;SDS011;36542;51.700;8.846;2022-10-16T09:25:45;3.45;;;1.15;;
50585;SDS011;36542;51.700;8.846;2022-10-16T09:28:13;3.15;;;1.10;;
50585;SDS011;36542;51.700;8.846;2022-10-16T09:30:39;1.48;;;0.80;;
50585;SDS011;36542;51.700;8.846;2022-10-16T09:33:06;1.80;;;1.00;;
50585;SDS011;36542;51.700;8.846;2022-10-16T09:35:41;2.30;;;0.95;;
50585;SDS011;36542;51.700;8.846;2022-10-16T09:38:21;1.25;;;0.90;;
50585;SDS011;36542;51.700;8.846;2022-10-16T09:40:52;1.83;;;0.98;;
50585;SDS011;36542;51.700;8.846;2022-10-16T09:43:33;2.22;;;1.10;;
50585;SDS011;36542;51.700;8.846;2022-10-16T09:46:08;2.15;;;0.90;;
50585;SDS011;36542;51.700;8.846;2022-10-16T09:48:59;2.58;;;1.15;;
50585;SDS011;36542;51.700;8.846;2022-10-16T09:51:30;2.65;;;1.33;;
50585;SDS011;36542;51.700;8.846;2022-10-16T09:54:00;1.33;;;1.27;;
50585;SDS011;36542;51.700;8.846;2022-10-16T09:56:29;1.65;;;1.40;;
50585;SDS011;36542;51.700;8.846;2022-10-16T09:58:58;2.00;;;1.20;;
50585;SDS011;36542;51.700;8.846;2022-10-16T10:01:36;2.27;;;1.57;;
50585;SDS011;36542;51.700;8.846;2022-10-16T10:04:04;1.63;;;1.40;;
50585;SDS011;36542;51.700;8.846;2022-10-16T10:06:40;3.90;;;1.20;;
50585;SDS011;36542;51.700;8.846;2022-10-16T10:16:50;1.45;;;1.08;;
50585;SDS011;36542;51.700;8.846;2022-10-16T10:19:19;1.33;;;0.90;;
50585;SDS011;36542;51.700;8.846;2022-10-16T10:21:46;2.50;;;1.13;;
50585;SDS011;36542;51.700;8.846;2022-10-16T10:24:13;1.60;;;1.10;;
50585;SDS011;36542;51.700;8.846;2022-10-16T10:32:21;1.60;;;0.90;;
50585;SDS011;36542;51.700;8.846;2022-10-16T10:46:09;1.20;;;1.00;;
50585;SDS011;36542;51.700;8.846;2022-10-16T10:49:06;1.67;;;1.30;;
50585;SDS011;36542;51.700;8.846;2022-10-16T10:54:32;6.20;;;1.30;;
50585;SDS011;36542;51.700;8.846;2022-10-16T11:00:26;1.30;;;1.20;;
50585;SDS011;36542;51.700;8.846;2022-10-16T11:05:44;2.05;;;0.70;;
50585;SDS011;36542;51.700;8.846;2022-10-16T11:08:32;1.27;;;0.90;;
50585;SDS011;36542;51.700;8.846;2022-10-16T11:14:06;1.67;;;0.90;;
50585;SDS011;36542;51.700;8.846;2022-10-16T11:16:43;3.22;;;0.90;;
50585;SDS011;36542;51.700;8.846;2022-10-16T11:19:16;0.90;;;0.90;;
50585;SDS011;36542;51.700;8.846;2022-10-16T11:27:16;1.70;;;0.98;;
50585;SDS011;36542;51.700;8.846;2022-10-16T11:30:18;3.63;;;0.85;;
50585;SDS011;36542;51.700;8.846;2022-10-16T11:38:15;2.67;;;1.20;;
50585;SDS011;36542;51.700;8.846;2022-10-16T11:41:00;1.50;;;0.97;;
50585;SDS011;36542;51.700;8.846;2022-10-16T11:43:34;2.20;;;0.63;;
50585;SDS011;36542;51.700;8.846;2022-10-16T11:46:14;1.40;;;0.70;;
50585;SDS011;36542;51.700;8.846;2022-10-16T11:48:45;1.60;;;1.00;;
50585;SDS011;36542;51.700;8.846;2022-10-16T11:54:28;3.00;;;0.97;;
50585;SDS011;36542;51.700;8.846;2022-10-16T11:56:55;1.30;;;0.90;;
50585;SDS011;36542;51.700;8.846;2022-10-16T11:59:28;3.97;;;0.90;;
50585;SDS011;36542;51.700;8.846;2022-10-16T12:05:09;1.10;;;0.80;;
50585;SDS011;36542;51.700;8.846;2022-10-16T12:07:47;1.23;;;0.80;;
50585;SDS011;36542;51.700;8.846;2022-10-16T12:10:36;1.33;;;0.90;;
50585;SDS011;36542;51.700;8.846;2022-10-16T12:13:04;3.03;;;0.90;;
50585;SDS011;36542;51.700;8.846;2022-10-16T12:15:49;2.73;;;0.67;;
50585;SDS011;36542;51.700;8.846;2022-10-16T12:18:22;2.07;;;0.90;;
50585;SDS011;36542;51.700;8.846;2022-10-16T12:20:55;2.00;;;0.70;;
50585;SDS011;36542;51.700;8.846;2022-10-16T12:23:29;2.90;;;0.90;;
50585;SDS011;36542;51.700;8.846;2022-10-16T12:25:56;1.67;;;0.77;;
50585;SDS011;36542;51.700;8.846;2022-10-16T12:28:27;1.03;;;0.87;;
50585;SDS011;36542;51.700;8.846;2022-10-16T12:31:01;1.97;;;0.53;;
50585;SDS011;36542;51.700;8.846;2022-10-16T12:33:33;1.13;;;0.60;;
50585;SDS011;36542;51.700;8.846;2022-10-16T12:36:02;3.43;;;0.93;;
50585;SDS011;36542;51.700;8.846;2022-10-16T12:38:48;1.50;;;0.90;;
50585;SDS011;36542;51.700;8.846;2022-10-16T12:41:24;1.37;;;0.60;;
50585;SDS011;36542;51.700;8.846;2022-10-16T12:43:54;1.73;;;0.60;;
50585;SDS011;36542;51.700;8.846;2022-10-16T12:46:22;1.07;;;0.60;;
50585;SDS011;36542;51.700;8.846;2022-10-16T12:49:04;3.47;;;0.80;;
50585;SDS011;36542;51.700;8.846;2022-10-16T12:56:38;0.77;;;0.77;;
50585;SDS011;36542;51.700;8.846;2022-10-16T12:59:53;0.77;;;0.60;;
50585;SDS011;36542;51.700;8.846;2022-10-16T13:11:27;1.30;;;0.53;;
50585;SDS011;36542;51.700;8.846;2022-10-16T13:14:28;1.27;;;0.67;;
50585;SDS011;36542;51.700;8.846;2022-10-16T13:17:11;2.37;;;0.80;;
50585;SDS011;36542;51.700;8.846;2022-10-16T13:19:56;4.47;;;0.60;;
50585;SDS011;36542;51.700;8.846;2022-10-16T13:30:26;1.83;;;0.70;;
50585;SDS011;36542;51.700;8.846;2022-10-16T13:33:01;2.17;;;0.53;;
50585;SDS011;36542;51.700;8.846;2022-10-16T13:35:32;2.10;;;0.67;;
50585;SDS011;36542;51.700;8.846;2022-10-16T13:38:03;1.27;;;0.73;;
50585;SDS011;36542;51.700;8.846;2022-10-16T13:40:49;1.90;;;0.50;;
50585;SDS011;36542;51.700;8.846;2022-10-16T13:43:21;0.77;;;0.60;;
50585;SDS011;36542;51.700;8.846;2022-10-16T13:45:57;1.50;;;0.70;;
50585;SDS011;36542;51.700;8.846;2022-10-16T13:48:24;1.77;;;0.60;;
50585;SDS011;36542;51.700;8.846;2022-10-16T13:51:00;1.87;;;0.70;;
50585;SDS011;36542;51.700;8.846;2022-10-16T13:53:33;2.33;;;0.70;;
50585;SDS011;36542;51.700;8.846;2022-10-16T13:55:59;1.40;;;0.50;;
50585;SDS011;36542;51.700;8.846;2022-10-16T13:58:26;2.30;;;0.67;;
50585;SDS011;36542;51.700;8.846;2022-10-16T14:00:56;2.70;;;0.67;;
50585;SDS011;36542;51.700;8.846;2022-10-16T14:03:49;2.57;;;0.60;;
50585;SDS011;36542;51.700;8.846;2022-10-16T14:06:17;3.80;;;0.90;;
50585;SDS011;36542;51.700;8.846;2022-10-16T14:08:49;1.17;;;0.60;;
50585;SDS011;36542;51.700;8.846;2022-10-16T14:11:26;0.73;;;0.53;;
50585;SDS011;36542;51.700;8.846;2022-10-16T14:13:52;1.80;;;0.70;;
50585;SDS011;36542;51.700;8.846;2022-10-16T14:16:29;0.60;;;0.57;;
50585;SDS011;36542;51.700;8.846;2022-10-16T14:19:03;0.50;;;0.50;;
50585;SDS011;36542;51.700;8.846;2022-10-16T14:21:35;0.83;;;0.33;;
50585;SDS011;36542;51.700;8.846;2022-10-16T14:26:59;1.30;;;0.60;;
50585;SDS011;36542;51.700;8.846;2022-10-16T14:29:27;1.27;;;0.50;;
50585;SDS011;36542;51.700;8.846;2022-10-16T14:32:00;1.27;;;0.70;;
50585;SDS011;36542;51.700;8.846;2022-10-16T14:34:28;1.30;;;0.50;;
50585;SDS011;36542;51.700;8.846;2022-10-16T14:37:05;2.50;;;0.57;;
50585;SDS011;36542;51.700;8.846;2022-10-16T14:39:48;0.80;;;0.70;;
50585;SDS011;36542;51.700;8.846;2022-10-16T14:42:16;2.33;;;0.40;;
50585;SDS011;36542;51.700;8.846;2022-10-16T14:44:44;1.73;;;0.70;;
50585;SDS011;36542;51.700;8.846;2022-10-16T14:47:12;3.37;;;0.63;;
50585;SDS011;36542;51.700;8.846;2022-10-16T14:49:41;1.27;;;0.67;;
50585;SDS011;36542;51.700;8.846;2022-10-16T14:52:11;1.27;;;0.80;;
50585;SDS011;36542;51.700;8.846;2022-10-16T14:54:37;1.83;;;0.83;;
50585;SDS011;36542;51.700;8.846;2022-10-16T14:57:03;0.80;;;0.80;;
50585;SDS011;36542;51.700;8.846;2022-10-16T14:59:36;0.67;;;0.60;;
50585;SDS011;36542;51.700;8.846;2022-10-16T15:02:16;2.67;;;0.70;;
50585;SDS011;36542;51.700;8.846;2022-10-16T15:04:57;1.17;;;0.80;;
50585;SDS011;36542;51.700;8.846;2022-10-16T15:07:27;2.27;;;0.47;;
50585;SDS011;36542;51.700;8.846;2022-10-16T15:09:52;2.00;;;0.60;;
50585;SDS011;36542;51.700;8.846;2022-10-16T15:12:18;0.83;;;0.80;;
50585;SDS011;36542;51.700;8.846;2022-10-16T15:14:44;1.90;;;0.90;;
50585;SDS011;36542;51.700;8.846;2022-10-16T15:17:10;2.10;;;0.80;;
50585;SDS011;36542;51.700;8.846;2022-10-16T15:19:36;1.50;;;0.60;;
50585;SDS011;36542;51.700;8.846;2022-10-16T15:22:02;2.07;;;0.70;;
50585;SDS011;36542;51.700;8.846;2022-10-16T15:24:27;3.83;;;0.70;;
50585;SDS011;36542;51.700;8.846;2022-10-16T15:26:53;3.27;;;1.80;;
50585;SDS011;36542;51.700;8.846;2022-10-16T15:29:18;4.50;;;1.43;;
50585;SDS011;36542;51.700;8.846;2022-10-16T15:31:44;1.60;;;1.20;;
50585;SDS011;36542;51.700;8.846;2022-10-16T15:34:12;2.00;;;1.40;;
50585;SDS011;36542;51.700;8.846;2022-10-16T15:36:38;3.43;;;1.10;;
50585;SDS011;36542;51.700;8.846;2022-10-16T15:39:04;3.33;;;1.50;;
50585;SDS011;36542;51.700;8.846;2022-10-16T15:41:50;3.27;;;1.37;;
50585;SDS011;36542;51.700;8.846;2022-10-16T15:44:17;3.63;;;1.40;;
50585;SDS011;36542;51.700;8.846;2022-10-16T15:46:43;1.33;;;1.23;;
50585;SDS011;36542;51.700;8.846;2022-10-16T15:49:08;4.53;;;1.37;;
50585;SDS011;36542;51.700;8.846;2022-10-16T15:51:37;2.20;;;1.20;;
50585;SDS011;36542;51.700;8.846;2022-10-16T15:54:04;1.67;;;1.13;;
50585;SDS011;36542;51.700;8.846;2022-10-16T15:56:29;3.37;;;1.20;;
50585;SDS011;36542;51.700;8.846;2022-10-16T15:58:58;2.60;;;1.33;;
50585;SDS011;36542;51.700;8.846;2022-10-16T16:01:24;1.90;;;1.30;;
50585;SDS011;36542;51.700;8.846;2022-10-16T16:03:52;3.17;;;1.60;;
50585;SDS011;36542;51.700;8.846;2022-10-16T16:06:18;5.70;;;2.70;;
50585;SDS011;36542;51.700;8.846;2022-10-16T16:08:44;3.67;;;1.90;;
50585;SDS011;36542;51.700;8.846;2022-10-16T16:11:10;4.10;;;1.87;;
50585;SDS011;36542;51.700;8.846;2022-10-16T16:13:38;2.27;;;1.40;;
50585;SDS011;36542;51.700;8.846;2022-10-16T16:16:08;1.57;;;1.40;;
50585;SDS011;36542;51.700;8.846;2022-10-16T16:18:36;1.17;;;1.00;;
50585;SDS011;36542;51.700;8.846;2022-10-16T16:21:02;6.80;;;1.50;;
50585;SDS011;36542;51.700;8.846;2022-10-16T16:23:28;3.00;;;1.30;;
50585;SDS011;36542;51.700;8.846;2022-10-16T16:26:27;3.20;;;1.70;;
50585;SDS011;36542;51.700;8.846;2022-10-16T16:28:51;3.23;;;1.70;;
50585;SDS011;36542;51.700;8.846;2022-10-16T16:31:18;2.03;;;1.50;;
50585;SDS011;36542;51.700;8.846;2022-10-16T16:33:44;2.00;;;1.30;;
50585;SDS011;36542;51.700;8.846;2022-10-16T16:36:10;2.20;;;1.30;;
50585;SDS011;36542;51.700;8.846;2022-10-16T16:38:36;3.77;;;1.70;;
50585;SDS011;36542;51.700;8.846;2022-10-16T16:41:15;4.97;;;3.00;;
50585;SDS011;36542;51.700;8.846;2022-10-16T16:43:41;3.90;;;1.87;;
50585;SDS011;36542;51.700;8.846;2022-10-16T16:46:07;5.83;;;1.50;;
50585;SDS011;36542;51.700;8.846;2022-10-16T16:48:33;4.17;;;1.33;;
50585;SDS011;36542;51.700;8.846;2022-10-16T16:51:03;4.47;;;1.73;;
50585;SDS011;36542;51.700;8.846;2022-10-16T16:53:33;3.17;;;1.30;;
50585;SDS011;36542;51.700;8.846;2022-10-16T16:56:05;3.00;;;1.53;;